Toyama, Japan
Current Conditions -  °F | °C
As of 6:00 PM on Wednesday 22 Oct 2014 (Local Time) from RJNT Reporting Station
Broken Clouds Broken Clouds  
Wind Chill: 59°   Ceiling: 9000
Heat Index: 59°   Visibility: 6mi
Dew Point: 48°   Wind: 14mph
Humidity: 67%   Direction: 20°NNE
Pressure: 29.94"   Gusts: NA
Location:  36.7°N, 137.22°E
Report Text: RJNT 220900Z 02012KT 350V050 9999 FEW010 SCT020 BKN090 15/09 Q1014
Loading
Personal Weather Stations






























Interactive Weather Map
Tropical Storm Tracking
New forecast layout! Learn more

10-Day Weather Forecast

Advertisements
Track Severe Weather on mobile